Time;durP1;ratioP1;P1;durP2;ratioP2;P2;SDS_P1;SDS_P2;PMS_P1;PMS_P2;Temp;Humidity;BMP_temperature;BMP_pressure;BME280_temperature;BME280_humidity;BME280_pressure;Samples;Min_cycle;Max_cycle;Signal;HPM_P1;HPM_P2
2023/12/30 00:01:48;;;;;;;20.60;4.57;;;11.30;99.90;;;;;;5129960;28;20054;-49
2023/12/30 00:04:13;;;;;;;27.45;4.88;;;11.30;99.90;;;;;;5130124;28;20028;-49
2023/12/30 00:06:39;;;;;;;23.45;4.22;;;11.30;99.90;;;;;;5130058;28;20024;-49
2023/12/30 00:09:05;;;;;;;14.07;4.22;;;11.30;99.90;;;;;;5111788;28;20049;-49
2023/12/30 00:11:30;;;;;;;16.50;4.68;;;11.30;99.90;;;;;;5111495;28;20087;-49
2023/12/30 00:13:56;;;;;;;22.90;3.67;;;11.30;99.90;;;;;;5145618;27;20031;-49
2023/12/30 00:16:22;;;;;;;23.35;4.68;;;11.30;99.90;;;;;;5129717;28;20035;-48
2023/12/30 00:18:47;;;;;;;13.60;4.13;;;11.30;99.90;;;;;;5145707;27;20051;-49
2023/12/30 00:21:21;;;;;;;21.63;4.10;;;11.20;99.90;;;;;;5111364;28;20036;-49
2023/12/30 00:23:48;;;;;;;17.98;4.18;;;11.20;99.90;;;;;;5110086;28;20024;-49
2023/12/30 00:26:20;;;;;;;22.90;5.35;;;11.20;99.90;;;;;;5111419;28;20041;-49
2023/12/30 00:28:46;;;;;;;17.90;4.07;;;11.30;99.90;;;;;;5129426;28;20027;-49
2023/12/30 00:31:25;;;;;;;20.02;4.05;;;11.20;99.90;;;;;;5129475;28;20491;-49
2023/12/30 00:33:52;;;;;;;18.65;4.38;;;11.20;99.90;;;;;;5111123;28;20080;-50
2023/12/30 00:36:17;;;;;;;11.85;3.47;;;11.20;99.90;;;;;;5111345;28;20091;-49
2023/12/30 00:38:43;;;;;;;17.67;4.15;;;11.20;99.90;;;;;;5129556;28;20036;-49
2023/12/30 00:41:08;;;;;;;13.30;3.75;;;11.20;99.90;;;;;;5111042;28;20054;-50
2023/12/30 00:43:35;;;;;;;15.10;4.72;;;11.20;99.90;;;;;;5094101;28;20079;-49
2023/12/30 00:46:01;;;;;;;12.98;4.18;;;11.20;99.90;;;;;;5129320;28;20020;-49
2023/12/30 00:48:26;;;;;;;14.13;3.60;;;11.10;99.90;;;;;;5129253;28;20424;-49
2023/12/30 00:50:52;;;;;;;15.48;4.00;;;11.10;99.90;;;;;;5111042;28;20027;-49
2023/12/30 00:53:18;;;;;;;13.68;4.38;;;11.10;99.90;;;;;;5144988;27;20028;-49
2023/12/30 00:55:44;;;;;;;9.77;3.42;;;11.10;99.90;;;;;;5129142;28;20034;-49
2023/12/30 00:58:09;;;;;;;8.50;3.60;;;11.10;99.90;;;;;;5110829;28;20032;-49
2023/12/30 01:00:35;;;;;;;15.77;3.97;;;11.10;99.90;;;;;;5128931;28;20026;-49
2023/12/30 01:03:00;;;;;;;10.07;4.03;;;11.10;99.90;;;;;;5128719;28;20054;-49
2023/12/30 01:05:26;;;;;;;11.38;4.25;;;11.10;99.90;;;;;;5128856;28;20019;-49
2023/12/30 01:07:52;;;;;;;9.73;3.67;;;11.10;99.90;;;;;;5128431;28;20480;-50
2023/12/30 01:10:17;;;;;;;16.60;4.70;;;11.10;99.90;;;;;;5110528;28;20020;-49
2023/12/30 01:12:43;;;;;;;11.85;3.38;;;11.10;99.90;;;;;;5110489;28;20027;-49
2023/12/30 01:15:09;;;;;;;13.65;3.60;;;11.10;99.90;;;;;;5144617;27;20028;-49
2023/12/30 01:17:35;;;;;;;6.82;4.10;;;11.10;99.90;;;;;;5128486;28;20024;-49
2023/12/30 01:20:01;;;;;;;12.68;4.13;;;11.00;99.90;;;;;;5110387;28;20087;-49
2023/12/30 01:22:26;;;;;;;10.52;3.50;;;11.00;99.90;;;;;;5110459;28;20048;-49
2023/12/30 01:24:52;;;;;;;8.02;3.92;;;11.00;99.90;;;;;;5128739;28;20059;-49
2023/12/30 01:27:17;;;;;;;14.23;4.05;;;11.00;99.90;;;;;;5110504;28;20110;-48
2023/12/30 01:29:43;;;;;;;14.27;4.03;;;11.00;99.90;;;;;;5128542;28;20356;-50
2023/12/30 01:32:09;;;;;;;8.93;3.72;;;11.00;99.90;;;;;;5129106;28;20031;-49
2023/12/30 01:34:35;;;;;;;9.73;3.92;;;11.00;99.90;;;;;;5127957;28;20040;-49
2023/12/30 01:37:01;;;;;;;9.52;3.55;;;11.00;99.90;;;;;;5144352;27;20047;-50
2023/12/30 01:39:27;;;;;;;10.15;4.15;;;11.00;99.90;;;;;;5128160;28;20031;-49
2023/12/30 01:41:52;;;;;;;13.57;4.30;;;11.00;99.90;;;;;;5109912;28;20043;-49
2023/12/30 01:44:18;;;;;;;8.32;3.58;;;10.90;99.90;;;;;;5128301;28;20467;-50
2023/12/30 01:46:44;;;;;;;9.50;3.80;;;10.90;99.90;;;;;;5109835;28;20033;-49
2023/12/30 01:49:10;;;;;;;12.55;3.95;;;10.90;99.90;;;;;;5128070;28;20081;-50
2023/12/30 01:51:35;;;;;;;10.38;4.38;;;10.90;99.90;;;;;;5109776;28;20035;-49
2023/12/30 01:54:03;;;;;;;8.23;3.38;;;10.90;99.90;;;;;;5109530;28;20221;-49
2023/12/30 01:56:28;;;;;;;5.57;4.05;;;10.90;99.90;;;;;;5093301;28;20030;-49
2023/12/30 01:58:54;;;;;;;9.07;3.60;;;10.80;99.90;;;;;;5109866;28;20028;-49
2023/12/30 02:01:22;;;;;;;9.52;3.25;;;10.90;99.90;;;;;;5109611;28;20375;-49
2023/12/30 02:03:48;;;;;;;10.30;3.60;;;10.90;99.90;;;;;;5109665;28;20028;-50
2023/12/30 02:06:13;;;;;;;6.75;3.92;;;10.90;99.90;;;;;;5109510;28;20037;-49
2023/12/30 02:08:39;;;;;;;8.45;4.03;;;10.80;99.90;;;;;;5127619;28;20028;-50
2023/12/30 02:11:05;;;;;;;6.47;3.88;;;10.80;99.90;;;;;;5092311;28;20540;-49
2023/12/30 02:13:30;;;;;;;9.40;3.35;;;10.80;99.90;;;;;;5127620;28;20063;-49
2023/12/30 02:15:56;;;;;;;10.07;3.70;;;10.80;99.90;;;;;;5127397;28;20051;-50
2023/12/30 02:18:21;;;;;;;10.00;4.00;;;10.80;99.90;;;;;;5127316;28;20032;-49
2023/12/30 02:20:47;;;;;;;7.97;4.22;;;10.80;99.90;;;;;;5109191;28;20031;-49
2023/12/30 02:23:12;;;;;;;11.57;4.30;;;10.70;99.90;;;;;;5127407;28;20043;-49
2023/12/30 02:25:38;;;;;;;7.13;3.80;;;10.80;99.90;;;;;;5109233;28;20020;-49
2023/12/30 02:28:04;;;;;;;9.55;4.15;;;10.80;99.90;;;;;;5108980;28;20036;-49
2023/12/30 02:30:29;;;;;;;4.65;3.70;;;10.70;99.90;;;;;;5127420;28;20020;-50
2023/12/30 02:32:57;;;;;;;6.80;4.00;;;10.70;99.90;;;;;;5144036;27;20052;-49
2023/12/30 02:35:23;;;;;;;6.63;3.85;;;10.70;99.90;;;;;;5126978;28;20034;-49
2023/12/30 02:37:49;;;;;;;7.45;3.95;;;10.70;99.90;;;;;;5108990;28;20496;-49
2023/12/30 02:40:14;;;;;;;8.50;3.88;;;10.70;99.90;;;;;;5108858;28;20019;-49
2023/12/30 02:42:40;;;;;;;9.75;3.55;;;10.70;99.90;;;;;;5108470;28;20059;-49
2023/12/30 02:45:07;;;;;;;8.13;3.72;;;10.70;99.90;;;;;;5108950;28;20019;-49
2023/12/30 02:47:32;;;;;;;7.55;3.92;;;10.70;99.90;;;;;;5108054;28;20026;-50
2023/12/30 02:49:58;;;;;;;5.38;3.78;;;10.60;99.90;;;;;;5126953;28;20471;-49
2023/12/30 02:52:23;;;;;;;7.10;3.53;;;10.60;99.90;;;;;;5108684;28;20083;-49
2023/12/30 02:54:49;;;;;;;7.20;3.38;;;10.60;99.90;;;;;;5127081;28;20028;-49
2023/12/30 02:57:14;;;;;;;6.57;4.25;;;10.60;99.90;;;;;;5108664;28;20028;-49
2023/12/30 02:59:40;;;;;;;6.05;3.38;;;10.60;99.90;;;;;;5127033;28;20083;-49
2023/12/30 03:02:06;;;;;;;5.50;3.50;;;10.60;99.90;;;;;;5108638;28;20463;-49
2023/12/30 03:04:31;;;;;;;7.97;3.90;;;10.60;99.90;;;;;;5108752;28;20081;-49
2023/12/30 03:06:57;;;;;;;8.80;3.97;;;10.60;99.90;;;;;;5108468;28;20040;-49
2023/12/30 03:09:23;;;;;;;7.15;3.58;;;10.60;99.90;;;;;;5126987;28;20024;-49
2023/12/30 03:11:48;;;;;;;6.43;3.83;;;10.50;99.90;;;;;;5108867;28;20019;-49
2023/12/30 03:14:14;;;;;;;6.07;3.75;;;10.50;99.90;;;;;;5126926;28;20046;-49
2023/12/30 03:16:40;;;;;;;8.75;3.80;;;10.50;99.90;;;;;;5108462;28;20472;-49
2023/12/30 03:19:05;;;;;;;7.68;3.80;;;10.50;99.90;;;;;;5126844;28;20031;-49
2023/12/30 03:21:31;;;;;;;7.15;4.32;;;10.50;99.90;;;;;;5091352;28;20052;-49
2023/12/30 03:23:56;;;;;;;6.70;3.53;;;10.40;99.90;;;;;;5108356;28;20071;-49
2023/12/30 03:26:22;;;;;;;5.00;3.47;;;10.50;99.90;;;;;;5108354;28;20035;-49
2023/12/30 03:28:48;;;;;;;5.65;3.42;;;10.50;99.90;;;;;;5108290;28;20043;-49
2023/12/30 03:31:23;;;;;;;6.40;3.53;;;10.40;99.90;;;;;;5126586;28;20024;-49
2023/12/30 03:33:49;;;;;;;8.38;3.72;;;10.40;99.90;;;;;;5108056;28;20070;-49
2023/12/30 03:36:15;;;;;;;8.40;3.78;;;10.50;99.90;;;;;;5108405;28;20035;-49
2023/12/30 03:38:40;;;;;;;5.68;3.28;;;10.40;99.90;;;;;;5126654;28;20034;-49
2023/12/30 03:41:06;;;;;;;3.90;2.75;;;10.40;99.90;;;;;;5108174;28;20027;-49
2023/12/30 03:43:31;;;;;;;6.20;3.40;;;10.40;99.90;;;;;;5108177;28;20048;-49
2023/12/30 03:45:57;;;;;;;4.47;2.80;;;10.40;99.90;;;;;;5126481;28;20023;-49
2023/12/30 03:48:23;;;;;;;6.97;3.50;;;10.30;99.90;;;;;;5108142;28;20032;-49
2023/12/30 03:50:48;;;;;;;4.75;3.40;;;10.40;99.90;;;;;;5126314;28;20024;-49
2023/12/30 03:53:14;;;;;;;7.30;3.28;;;10.40;99.90;;;;;;5108082;28;20057;-49
2023/12/30 03:55:39;;;;;;;5.28;3.22;;;10.40;99.90;;;;;;5108221;28;20478;-49
2023/12/30 03:58:05;;;;;;;5.13;3.40;;;10.40;99.90;;;;;;5127290;28;20051;-49
2023/12/30 04:00:30;;;;;;;5.85;3.50;;;10.40;99.90;;;;;;5130190;28;20023;-49
2023/12/30 04:02:56;;;;;;;6.07;3.28;;;10.40;99.90;;;;;;5129887;28;20053;-49
2023/12/30 04:05:22;;;;;;;5.40;3.20;;;10.30;99.90;;;;;;5130069;28;20035;-49
2023/12/30 04:07:48;;;;;;;7.68;3.17;;;10.30;99.90;;;;;;5129792;28;20046;-49
2023/12/30 04:10:15;;;;;;;6.28;3.35;;;10.30;99.90;;;;;;5094583;28;20043;-48
2023/12/30 04:12:40;;;;;;;5.32;3.20;;;10.30;99.90;;;;;;5111572;28;20030;-50
2023/12/30 04:15:07;;;;;;;4.50;3.20;;;10.30;99.90;;;;;;5111656;28;20080;-50
2023/12/30 04:17:33;;;;;;;8.18;2.90;;;10.30;99.90;;;;;;5111284;28;20031;-50
2023/12/30 04:19:58;;;;;;;4.78;2.95;;;10.30;99.90;;;;;;5128532;28;20059;-49
2023/12/30 04:22:26;;;;;;;4.22;2.80;;;10.30;99.90;;;;;;5129639;28;20027;-49
2023/12/30 04:24:52;;;;;;;7.05;2.95;;;10.30;99.90;;;;;;5111410;28;20031;-50
2023/12/30 04:27:17;;;;;;;4.05;2.60;;;10.20;99.90;;;;;;5111282;28;20092;-49
2023/12/30 04:29:43;;;;;;;4.13;2.70;;;10.30;99.90;;;;;;5129611;28;20046;-49
2023/12/30 04:32:09;;;;;;;4.90;2.95;;;10.20;99.90;;;;;;5129400;28;20034;-49
2023/12/30 04:34:35;;;;;;;4.18;2.75;;;10.20;99.90;;;;;;5129299;28;20059;-49
2023/12/30 04:37:01;;;;;;;4.63;2.88;;;10.20;99.90;;;;;;5094287;28;20030;-49
2023/12/30 04:39:27;;;;;;;6.57;2.75;;;10.20;99.90;;;;;;5129410;28;20055;-49
2023/12/30 04:41:52;;;;;;;3.83;2.67;;;10.20;99.90;;;;;;5111108;28;20030;-49
2023/12/30 04:44:18;;;;;;;4.85;2.83;;;10.20;99.90;;;;;;5111084;28;20038;-50
2023/12/30 04:46:43;;;;;;;4.93;2.70;;;10.20;99.90;;;;;;5110994;28;20047;-49
2023/12/30 04:49:11;;;;;;;4.15;2.25;;;10.20;99.90;;;;;;5111121;28;20060;-50
2023/12/30 04:51:37;;;;;;;5.10;2.85;;;10.20;99.90;;;;;;5111375;28;20027;-50
2023/12/30 04:54:03;;;;;;;5.40;2.28;;;10.20;99.90;;;;;;5093671;28;20034;-49
2023/12/30 04:56:28;;;;;;;4.32;2.40;;;10.10;99.90;;;;;;5111003;28;20047;-49
2023/12/30 04:58:54;;;;;;;5.30;2.85;;;10.10;99.90;;;;;;5110895;28;20068;-49
2023/12/30 05:01:19;;;;;;;3.75;2.70;;;10.10;99.90;;;;;;5110733;28;20030;-49
2023/12/30 05:03:45;;;;;;;4.75;2.40;;;10.10;99.90;;;;;;5128943;28;20024;-49
2023/12/30 05:06:21;;;;;;;3.38;2.03;;;10.20;99.90;;;;;;5144675;27;20043;-49
2023/12/30 05:08:47;;;;;;;3.50;2.15;;;10.10;99.90;;;;;;5110421;28;20095;-49
2023/12/30 05:11:13;;;;;;;4.88;2.53;;;10.10;99.90;;;;;;5109695;28;20015;-49
2023/12/30 05:13:39;;;;;;;4.72;2.38;;;10.10;99.90;;;;;;5093477;28;20120;-49
2023/12/30 05:16:05;;;;;;;3.53;2.13;;;10.10;99.90;;;;;;5093635;28;20049;-49
2023/12/30 05:18:30;;;;;;;3.42;2.20;;;10.10;99.90;;;;;;5093351;28;20035;-50
2023/12/30 05:20:56;;;;;;;3.65;2.30;;;10.10;99.90;;;;;;5110395;28;20030;-49
2023/12/30 05:23:21;;;;;;;3.15;2.20;;;10.10;99.90;;;;;;5110382;28;20028;-49
2023/12/30 05:25:47;;;;;;;3.58;2.30;;;10.10;99.90;;;;;;5110218;28;20098;-49
2023/12/30 05:28:13;;;;;;;6.22;2.17;;;10.00;99.90;;;;;;5144307;27;20027;-49
2023/12/30 05:30:38;;;;;;;4.20;2.00;;;10.00;99.90;;;;;;5110196;28;20023;-49
2023/12/30 05:33:04;;;;;;;4.90;2.05;;;10.00;99.90;;;;;;5128182;28;20036;-49
2023/12/30 05:35:30;;;;;;;2.92;1.88;;;10.00;99.90;;;;;;5109819;28;20498;-49
2023/12/30 05:37:56;;;;;;;3.00;2.22;;;10.00;99.90;;;;;;5109958;28;20024;-49
2023/12/30 05:40:21;;;;;;;4.75;2.30;;;10.00;99.90;;;;;;5111903;28;20048;-49
2023/12/30 05:42:47;;;;;;;2.80;1.98;;;10.00;99.90;;;;;;5128278;28;20019;-49
2023/12/30 05:45:13;;;;;;;4.07;2.00;;;10.00;99.90;;;;;;5128095;28;20027;-49
2023/12/30 05:47:38;;;;;;;3.90;2.30;;;10.00;99.90;;;;;;5127944;28;20053;-50
2023/12/30 05:50:05;;;;;;;4.78;2.13;;;10.00;99.90;;;;;;5128190;28;20490;-49
2023/12/30 05:52:31;;;;;;;2.30;2.10;;;9.90;99.90;;;;;;5127670;28;20075;-49
2023/12/30 05:54:57;;;;;;;2.85;2.10;;;10.00;99.90;;;;;;5127887;28;20023;-49
2023/12/30 05:57:22;;;;;;;2.97;2.10;;;9.90;99.90;;;;;;5109711;28;20028;-49
2023/12/30 05:59:48;;;;;;;4.03;2.03;;;9.90;99.90;;;;;;5128025;28;20054;-49
2023/12/30 06:02:13;;;;;;;2.85;1.92;;;9.90;99.90;;;;;;5109395;28;20467;-49
2023/12/30 06:04:40;;;;;;;4.32;2.22;;;9.90;99.90;;;;;;5109912;28;20035;-49
2023/12/30 06:07:06;;;;;;;3.70;2.13;;;9.90;99.90;;;;;;5109731;28;20075;-49
2023/12/30 06:09:32;;;;;;;2.88;1.67;;;9.90;99.90;;;;;;5127736;28;20028;-49
2023/12/30 06:11:58;;;;;;;3.05;1.70;;;9.90;99.90;;;;;;5109543;28;20028;-49
2023/12/30 06:14:23;;;;;;;2.88;2.08;;;9.90;99.90;;;;;;5109301;28;20044;-49
2023/12/30 06:16:49;;;;;;;3.03;1.85;;;9.90;99.90;;;;;;5143418;27;20024;-50
2023/12/30 06:19:16;;;;;;;3.20;1.80;;;9.90;99.90;;;;;;5127355;28;20480;-49
2023/12/30 06:21:42;;;;;;;3.10;2.30;;;9.90;99.90;;;;;;5108734;28;20020;-49
2023/12/30 06:24:08;;;;;;;3.78;1.90;;;9.80;99.90;;;;;;5109322;28;20028;-50
2023/12/30 06:26:38;;;;;;;2.75;1.80;;;9.80;99.90;;;;;;5109219;28;20016;-50
2023/12/30 06:29:04;;;;;;;3.75;2.30;;;9.80;99.90;;;;;;5109188;28;20019;-49
2023/12/30 06:31:30;;;;;;;4.40;2.33;;;9.80;99.90;;;;;;5108852;28;20114;-49
2023/12/30 06:33:55;;;;;;;2.25;1.85;;;9.80;99.90;;;;;;5126884;28;20399;-49
2023/12/30 06:36:24;;;;;;;2.17;1.88;;;9.80;99.90;;;;;;5127236;28;20019;-49
2023/12/30 06:38:50;;;;;;;3.28;1.90;;;9.80;99.90;;;;;;5109316;28;20053;-49
2023/12/30 06:41:18;;;;;;;5.38;1.98;;;9.70;99.90;;;;;;5108879;28;20084;-49
2023/12/30 06:43:44;;;;;;;2.63;1.80;;;9.70;99.90;;;;;;5127151;28;20030;-49
2023/12/30 06:46:10;;;;;;;4.50;2.05;;;9.70;99.90;;;;;;5108960;28;20030;-49
2023/12/30 06:48:35;;;;;;;2.40;1.77;;;9.70;99.90;;;;;;5108849;28;20028;-49
2023/12/30 06:51:02;;;;;;;3.60;2.08;;;9.70;99.90;;;;;;5108713;28;20126;-49
2023/12/30 06:53:31;;;;;;;3.15;1.88;;;9.70;99.90;;;;;;5108914;28;20087;-49
2023/12/30 06:56:00;;;;;;;2.10;1.80;;;9.70;99.90;;;;;;5108750;28;20034;-49
2023/12/30 06:58:29;;;;;;;3.15;1.80;;;9.80;99.90;;;;;;5091662;28;20061;-49
2023/12/30 07:00:55;;;;;;;4.60;1.60;;;9.70;99.90;;;;;;5108627;28;20027;-49
2023/12/30 07:03:21;;;;;;;2.28;1.70;;;9.70;99.90;;;;;;5108656;28;20028;-49
2023/12/30 07:05:47;;;;;;;2.88;1.80;;;9.70;99.90;;;;;;5126911;28;20034;-49
2023/12/30 07:08:16;;;;;;;3.90;1.70;;;9.70;99.90;;;;;;5126387;28;20039;-49
2023/12/30 07:10:42;;;;;;;2.13;1.70;;;9.70;99.90;;;;;;5126805;28;20018;-49
2023/12/30 07:13:07;;;;;;;2.97;1.77;;;9.70;99.90;;;;;;5091455;28;20459;-49
2023/12/30 07:15:33;;;;;;;2.20;1.60;;;9.70;99.90;;;;;;5126735;28;20352;-49
2023/12/30 07:17:59;;;;;;;2.67;1.85;;;9.70;99.90;;;;;;5108404;28;20100;-49
2023/12/30 07:20:26;;;;;;;3.22;1.63;;;9.70;99.90;;;;;;5108485;28;20031;-49
2023/12/30 07:22:53;;;;;;;1.73;1.58;;;9.70;99.90;;;;;;5126317;28;20035;-49
2023/12/30 07:25:18;;;;;;;3.17;1.83;;;9.70;99.90;;;;;;5091106;28;20042;-49
2023/12/30 07:27:44;;;;;;;2.67;2.08;;;9.60;99.90;;;;;;5108095;28;20468;-49
2023/12/30 07:30:09;;;;;;;4.88;1.92;;;9.60;99.90;;;;;;5108368;28;20022;-49
2023/12/30 07:32:36;;;;;;;3.30;1.83;;;9.60;99.90;;;;;;5108662;28;20627;-49
2023/12/30 07:35:01;;;;;;;2.92;1.95;;;9.60;99.90;;;;;;5130409;28;20036;-49
2023/12/30 07:37:27;;;;;;;2.90;1.70;;;9.50;99.90;;;;;;5095372;28;20027;-49
2023/12/30 07:39:53;;;;;;;2.83;1.95;;;9.60;99.90;;;;;;5130509;28;20036;-49
2023/12/30 07:42:18;;;;;;;2.58;1.75;;;9.60;99.90;;;;;;5127821;28;20268;-48
2023/12/30 07:44:44;;;;;;;2.90;1.70;;;9.60;99.90;;;;;;5094343;28;20084;-49
2023/12/30 07:47:10;;;;;;;4.28;1.88;;;9.60;99.90;;;;;;5088469;28;20009;-49
2023/12/30 07:49:36;;;;;;;3.28;1.70;;;9.50;99.90;;;;;;5094737;28;20030;-49
2023/12/30 07:52:01;;;;;;;4.50;1.60;;;9.50;99.90;;;;;;5124855;28;20032;-49
2023/12/30 07:54:27;;;;;;;2.17;1.75;;;9.50;99.90;;;;;;5109945;28;20039;-49
2023/12/30 07:56:53;;;;;;;3.65;1.80;;;9.50;99.90;;;;;;5109889;28;20020;-49
2023/12/30 07:59:19;;;;;;;2.08;1.60;;;9.50;99.90;;;;;;5112783;27;20025;-49
2023/12/30 08:01:44;;;;;;;2.17;1.63;;;9.50;99.90;;;;;;5106665;28;20084;-49
2023/12/30 08:04:10;;;;;;;2.70;1.67;;;9.50;99.90;;;;;;5108970;28;20024;-49
2023/12/30 08:06:35;;;;;;;3.08;1.70;;;9.50;99.90;;;;;;5125388;28;20028;-49
2023/12/30 08:09:01;;;;;;;2.78;1.92;;;9.50;99.90;;;;;;5108901;28;20496;-49
2023/12/30 08:11:27;;;;;;;2.70;1.58;;;9.40;99.90;;;;;;5100219;28;20042;-49
2023/12/30 08:13:52;;;;;;;2.05;1.60;;;9.40;99.90;;;;;;5098387;28;20107;-49
2023/12/30 08:16:18;;;;;;;2.35;1.63;;;9.40;99.90;;;;;;5129772;28;20024;-49
2023/12/30 08:18:44;;;;;;;2.97;1.83;;;9.40;99.90;;;;;;5107960;28;20422;-49
2023/12/30 08:21:10;;;;;;;2.05;1.48;;;9.40;99.90;;;;;;5100941;28;20039;-50
2023/12/30 08:23:35;;;;;;;2.20;1.50;;;9.40;99.90;;;;;;5129276;28;20028;-49
2023/12/30 08:26:01;;;;;;;2.50;1.73;;;9.40;99.90;;;;;;5111943;28;20028;-49
2023/12/30 08:28:27;;;;;;;2.08;1.50;;;9.40;99.90;;;;;;5107774;28;20054;-49
2023/12/30 08:30:54;;;;;;;3.50;1.70;;;9.40;99.90;;;;;;5109150;28;20012;-49
2023/12/30 08:33:20;;;;;;;2.95;1.83;;;9.40;99.90;;;;;;5122897;28;20036;-49
2023/12/30 08:35:48;;;;;;;2.13;1.40;;;9.40;99.90;;;;;;5123022;28;20099;-49
2023/12/30 08:38:14;;;;;;;2.10;1.73;;;9.40;99.90;;;;;;5124240;28;20077;-49
2023/12/30 08:40:40;;;;;;;2.20;1.55;;;9.40;99.90;;;;;;5091494;28;20028;-49
2023/12/30 08:43:06;;;;;;;3.15;1.50;;;9.40;99.90;;;;;;5125765;28;20024;-49
2023/12/30 08:45:31;;;;;;;3.53;1.55;;;9.40;99.90;;;;;;5128144;28;20026;-49
2023/12/30 08:47:57;;;;;;;2.00;1.42;;;9.40;99.90;;;;;;5119338;28;20058;-49
2023/12/30 08:50:22;;;;;;;2.45;1.40;;;9.40;99.90;;;;;;5139885;27;20053;-49
2023/12/30 08:52:48;;;;;;;4.25;1.60;;;9.40;99.90;;;;;;5117244;28;20052;-49
2023/12/30 08:55:14;;;;;;;2.33;1.58;;;9.40;99.90;;;;;;5098444;28;20077;-49
2023/12/30 08:57:39;;;;;;;2.75;1.70;;;9.40;99.90;;;;;;5090566;28;20024;-49
2023/12/30 09:00:08;;;;;;;2.30;1.55;;;9.40;99.90;;;;;;5123903;28;21356;-49
2023/12/30 09:02:35;;;;;;;2.50;1.58;;;9.40;99.90;;;;;;5128928;28;20395;-49
2023/12/30 09:05:00;;;;;;;3.42;1.75;;;9.40;99.90;;;;;;5128826;28;20028;-49
2023/12/30 09:07:26;;;;;;;2.05;1.48;;;9.40;99.90;;;;;;5110741;28;20027;-49
2023/12/30 09:09:52;;;;;;;3.50;1.63;;;9.40;99.90;;;;;;5126787;28;20028;-49
2023/12/30 09:12:17;;;;;;;2.65;1.80;;;9.40;99.90;;;;;;5110496;28;20027;-49
2023/12/30 09:14:43;;;;;;;2.97;1.90;;;9.40;99.90;;;;;;5108731;28;20092;-49
2023/12/30 09:17:08;;;;;;;1.85;1.70;;;9.40;99.90;;;;;;5091292;28;20028;-49
2023/12/30 09:19:34;;;;;;;2.55;1.85;;;9.40;99.90;;;;;;5108243;28;20063;-49
2023/12/30 09:21:59;;;;;;;3.03;1.70;;;9.40;99.90;;;;;;5111945;28;20031;-49
2023/12/30 09:24:25;;;;;;;2.58;1.63;;;9.40;99.90;;;;;;5122162;28;20403;-49
2023/12/30 09:26:51;;;;;;;2.40;1.52;;;9.40;99.90;;;;;;5107816;28;20024;-49
2023/12/30 09:29:18;;;;;;;4.90;2.15;;;9.40;99.90;;;;;;5108055;28;20092;-49
2023/12/30 09:31:43;;;;;;;3.10;1.95;;;9.40;99.90;;;;;;5111205;28;20055;-49
2023/12/30 09:34:09;;;;;;;3.38;2.20;;;9.40;99.90;;;;;;5107786;28;20035;-49
2023/12/30 09:36:34;;;;;;;2.97;1.90;;;9.40;99.90;;;;;;5120847;28;20073;-50
2023/12/30 09:39:00;;;;;;;2.35;1.77;;;9.40;99.90;;;;;;5112421;28;20077;-50
2023/12/30 09:41:26;;;;;;;3.50;2.00;;;9.40;99.90;;;;;;5098155;28;20027;-49
2023/12/30 09:43:52;;;;;;;3.38;2.17;;;9.50;99.90;;;;;;5099000;28;20055;-49
2023/12/30 09:46:17;;;;;;;3.67;2.03;;;9.40;99.90;;;;;;5104366;28;20028;-49
2023/12/30 09:48:43;;;;;;;3.63;2.15;;;9.50;99.90;;;;;;5106070;28;20036;-49
2023/12/30 09:51:09;;;;;;;7.32;2.60;;;9.40;99.90;;;;;;5104150;28;20032;-49
2023/12/30 09:53:35;;;;;;;2.70;2.08;;;9.50;99.90;;;;;;5118485;27;20063;-49
2023/12/30 09:56:00;;;;;;;9.57;2.20;;;9.50;99.90;;;;;;5098279;28;20052;-49
2023/12/30 09:58:26;;;;;;;3.58;1.98;;;9.50;99.90;;;;;;5108764;28;20464;-49
2023/12/30 10:00:52;;;;;;;6.60;2.40;;;9.50;99.90;;;;;;5103763;28;20084;-49
2023/12/30 10:03:18;;;;;;;21.38;3.10;;;9.50;99.90;;;;;;5104485;28;20032;-49
2023/12/30 10:05:44;;;;;;;15.90;3.03;;;9.50;99.90;;;;;;5089628;28;20027;-49
2023/12/30 10:08:09;;;;;;;27.00;3.40;;;9.50;99.90;;;;;;5120177;28;20096;-49
2023/12/30 10:10:46;;;;;;;22.77;3.55;;;9.50;99.90;;;;;;5093014;28;20031;-49
2023/12/30 10:13:12;;;;;;;19.85;3.28;;;9.50;99.90;;;;;;5101376;28;20032;-49
2023/12/30 10:15:38;;;;;;;15.40;3.83;;;9.50;99.90;;;;;;5118376;27;20028;-49
2023/12/30 10:18:06;;;;;;;17.33;4.25;;;9.50;99.90;;;;;;5103721;28;20123;-49
2023/12/30 10:20:37;;;;;;;29.60;4.05;;;9.60;99.90;;;;;;5089969;28;20052;-49
2023/12/30 10:23:03;;;;;;;22.15;4.22;;;9.50;99.90;;;;;;5119815;28;20059;-49
2023/12/30 10:25:28;;;;;;;23.30;4.00;;;9.60;99.90;;;;;;5068709;28;20017;-49
2023/12/30 10:27:54;;;;;;;18.85;3.92;;;9.60;99.90;;;;;;5083959;28;20128;-49
2023/12/30 10:30:20;;;;;;;60.88;6.30;;;9.60;99.90;;;;;;5113830;28;20472;-49
2023/12/30 10:32:46;;;;;;;100.47;9.98;;;9.60;99.90;;;;;;5106223;28;20015;-49
2023/12/30 10:35:12;;;;;;;45.40;5.68;;;9.60;99.90;;;;;;5095089;28;20060;-49
2023/12/30 10:37:38;;;;;;;56.17;6.60;;;9.60;99.90;;;;;;5103394;28;20024;-50
2023/12/30 10:40:05;;;;;;;77.05;7.78;;;9.60;99.90;;;;;;5102402;28;20039;-49
2023/12/30 10:42:31;;;;;;;69.13;7.65;;;9.70;99.90;;;;;;5119647;28;20027;-49
2023/12/30 10:44:56;;;;;;;119.78;9.85;;;9.70;99.90;;;;;;5104517;28;20032;-49
2023/12/30 10:47:22;;;;;;;108.60;12.00;;;9.70;99.90;;;;;;5101459;28;20046;-49
2023/12/30 10:49:52;;;;;;;86.15;9.73;;;9.70;99.90;;;;;;5106565;28;20088;-49
2023/12/30 10:52:21;;;;;;;71.22;7.55;;;9.70;99.90;;;;;;5114906;28;20024;-49
2023/12/30 10:54:47;;;;;;;52.75;7.50;;;9.70;99.90;;;;;;5093180;28;20038;-49
2023/12/30 10:57:14;;;;;;;61.97;7.95;;;9.70;99.90;;;;;;5117803;28;20481;-49
2023/12/30 10:59:40;;;;;;;61.83;8.45;;;9.70;99.90;;;;;;5088899;28;20107;-49
2023/12/30 11:02:05;;;;;;;91.90;10.50;;;9.80;99.90;;;;;;5093164;28;20057;-49
2023/12/30 11:04:31;;;;;;;66.80;8.75;;;9.70;99.90;;;;;;5085429;28;20372;-49
2023/12/30 11:06:57;;;;;;;75.32;7.55;;;9.80;99.90;;;;;;5094429;28;20052;-49
2023/12/30 11:09:29;;;;;;;68.07;8.40;;;9.70;99.90;;;;;;5102911;28;20039;-49
2023/12/30 11:11:56;;;;;;;68.72;8.25;;;9.80;99.90;;;;;;5107533;28;20032;-49
2023/12/30 11:14:22;;;;;;;73.68;9.20;;;9.80;99.90;;;;;;5087764;28;20050;-49
2023/12/30 11:16:50;;;;;;;63.88;8.93;;;9.80;99.90;;;;;;5097043;28;20509;-49
2023/12/30 11:19:31;;;;;;;55.83;7.82;;;9.80;99.90;;;;;;5090582;28;20044;-49
2023/12/30 11:22:02;;;;;;;68.72;7.47;;;9.80;99.90;;;;;;5104401;28;20024;-49
2023/12/30 11:24:27;;;;;;;81.35;8.43;;;9.80;99.90;;;;;;5078735;28;20028;-49
2023/12/30 11:26:54;;;;;;;56.75;7.60;;;9.80;99.90;;;;;;5096728;28;20115;-49
2023/12/30 11:29:22;;;;;;;54.83;7.10;;;9.80;99.90;;;;;;5097603;28;20028;-49
2023/12/30 11:31:49;;;;;;;51.97;7.18;;;9.80;99.90;;;;;;5089941;28;20028;-49
2023/12/30 11:34:15;;;;;;;66.60;8.68;;;9.90;99.90;;;;;;5086366;28;20047;-49
2023/12/30 11:36:41;;;;;;;63.95;8.90;;;9.80;99.90;;;;;;5087364;28;20046;-49
2023/12/30 11:39:10;;;;;;;67.03;8.45;;;9.80;99.90;;;;;;5104465;28;20032;-49
2023/12/30 11:41:36;;;;;;;80.30;8.93;;;9.80;99.90;;;;;;5093106;28;20063;-49
2023/12/30 11:44:03;;;;;;;61.60;7.85;;;9.90;99.90;;;;;;5094435;28;20028;-49
2023/12/30 11:46:29;;;;;;;57.40;7.05;;;9.90;99.90;;;;;;5092504;28;20039;-49
2023/12/30 11:48:56;;;;;;;65.18;7.75;;;9.90;99.90;;;;;;5113191;28;20031;-49
2023/12/30 11:51:23;;;;;;;57.17;6.38;;;9.90;99.90;;;;;;5122902;28;20049;-49
2023/12/30 11:53:48;;;;;;;66.38;7.43;;;9.90;99.90;;;;;;5100835;28;20055;-49
2023/12/30 11:56:17;;;;;;;84.75;9.05;;;9.90;99.90;;;;;;5119331;28;20050;-49
2023/12/30 11:58:43;;;;;;;58.17;7.95;;;9.90;99.90;;;;;;5105250;28;20027;-49
2023/12/30 12:01:09;;;;;;;53.05;7.15;;;9.90;99.90;;;;;;5121280;28;20032;-50
2023/12/30 12:03:34;;;;;;;53.28;7.25;;;10.00;99.90;;;;;;5101653;28;20047;-49
2023/12/30 12:06:00;;;;;;;58.42;7.30;;;9.90;99.90;;;;;;5103152;28;20483;-49
2023/12/30 12:08:26;;;;;;;69.00;8.05;;;10.00;99.90;;;;;;5118609;28;20032;-49
2023/12/30 12:10:52;;;;;;;69.38;9.15;;;10.00;99.90;;;;;;5089428;28;20034;-49
2023/12/30 12:13:21;;;;;;;105.53;11.68;;;10.00;99.90;;;;;;5094366;28;20019;-49
2023/12/30 12:15:48;;;;;;;68.05;8.32;;;10.00;99.90;;;;;;5093760;28;20027;-49
2023/12/30 12:18:13;;;;;;;58.35;7.88;;;10.00;99.90;;;;;;5096323;28;20025;-49
2023/12/30 12:20:42;;;;;;;60.88;9.23;;;10.00;99.90;;;;;;5107611;28;20028;-49
2023/12/30 12:23:07;;;;;;;87.47;8.65;;;10.00;99.90;;;;;;5118055;28;20050;-49
2023/12/30 12:25:33;;;;;;;91.13;11.85;;;10.10;99.90;;;;;;5074169;28;20020;-49
2023/12/30 12:28:33;;;;;;;95.03;11.93;;;10.10;99.90;;;;;;5114553;28;20095;-49
2023/12/30 12:34:33;;;;;;;85.18;10.63;;;10.10;99.90;;;;;;5109588;28;20035;-49
2023/12/30 12:36:59;;;;;;;62.75;8.00;;;10.10;99.90;;;;;;5108889;28;20020;-49
2023/12/30 12:39:24;;;;;;;95.55;9.45;;;10.10;99.90;;;;;;5091048;28;20020;-49
2023/12/30 12:41:50;;;;;;;89.60;9.98;;;10.20;99.90;;;;;;5088849;28;20024;-49
2023/12/30 12:44:16;;;;;;;120.82;12.70;;;10.20;99.90;;;;;;5119727;28;20029;-49
2023/12/30 12:46:41;;;;;;;94.25;11.98;;;10.20;99.90;;;;;;5102873;28;20027;-49